Observations for CLEVELAND HOPKINS, OH (CLE)

KCLE 221451Z 22013KT 10SM FEW150 FEW250 08/M01 A3014 RMK AO2 SLP211 T00831006 58002 
KCLE 221351Z 20011KT 10SM FEW140 FEW250 06/M01 A3016 RMK AO2 SLP217 T00611006   
KCLE 221251Z 19010KT 10SM FEW130 FEW250 04/M01 A3016 RMK AO2 SLP219 T00391011   
KCLE 221151Z 19010KT 10SM FEW130 FEW250 03/M01 A3015 RMK AO2 SLP215 T00281011 10050 20028 58011 
KCLE 221051Z 18010KT 10SM FEW130 03/M01 A3016 RMK AO2 SLP219 T00281011 $
KCLE 220951Z 19007KT 10SM FEW090 03/M01 A3017 RMK AO2 SLP222 T00331011 $
KCLE 220851Z 21008KT 10SM BKN090 04/M01 A3018 RMK AO2 SLP225 T00391006 58009 $  
KCLE 220751Z 20008KT 10SM OVC090 04/M01 A3019 RMK AO2 SLP228 T00391006 $
KCLE 220651Z 21007KT 10SM OVC090 04/M01 A3020 RMK AO2 SLP231 T00441006 $
KCLE 220551Z 19005KT 10SM BKN090 BKN120 03/M01 A3021 RMK AO2 SLP235 T00331006 10033 20000 55005 $   
KCLE 220451Z 17007KT 10SM SCT100 BKN120 02/M01 A3020 RMK AO2 SLP231 T00221006 400670000 $   
KCLE 220351Z 17005KT 10SM BKN130 02/M01 A3021 RMK AO2 SLP237 T00171011 $
KCLE 220251Z 17005KT 10SM BKN130 01/M01 A3022 RMK AO2 SLP241 T00111011 55004 $  
KCLE 220151Z 19003KT 10SM FEW130 02/M01 A3022 RMK AO2 SLP239 T00221011 $
KCLE 220051Z 17007KT 10SM FEW042 02/M01 A3021 RMK AO2 SLP237 T00171011 $
KCLE 212351Z 16004KT 10SM SCT042 03/M01 A3024 RMK AO2 SLP245 T00281011 10067 20022 58003 $  
KCLE 212251Z 00000KT 10SM SCT041 04/M02 A3024 RMK AO2 SLP247 T00441022 $
KCLE 212151Z 29004KT 10SM BKN037 06/M02 A3025 RMK AO2 SLP248 T00561022 $
KCLE 212051Z 27007KT 10SM OVC036 06/M02 A3025 RMK AO2 SLP247 T00561022 56016 $  
KCLE 211951Z 25010KT 10SM OVC030 06/M02 A3026 RMK AO2 SLP253 T00561022 $
KCLE 211851Z 25011KT 10SM OVC030 05/M01 A3027 RMK AO2 SLP257 T00501011 $
KCLE 211828Z 25011KT 10SM OVC030 05/M01 A3028 RMK AO2 T00501011 $
KCLE 211751Z 25009KT 10SM OVC028 04/M01 A3029 RMK AO2 SLP264 T00441011 10050 20044 58007 $  
KCLE 211731Z 27008KT 10SM OVC029 05/M02 A3030 RMK AO2 T00501017 $
KCLE 211651Z 30011KT 10SM OVC033 05/M02 A3030 RMK AO2 SLP266 T00501017 $
KCLE 211551Z 29008KT 10SM OVC033 04/M07 A3031 RMK AO2 SLP270 T00441072 $
KCLE 211451Z 30013KT 10SM OVC034 04/M05 A3031 RMK AO2 SLP270 T00441050 51021 $